createdAt,value
2017-10-25T06:20:03.794Z,30.95
2017-10-25T06:22:24.245Z,30.20
2017-10-25T06:24:25.209Z,23.90
2017-10-25T06:26:26.349Z,31.17
2017-10-25T06:33:32.644Z,30.27
2017-10-25T06:35:33.726Z,33.23
2017-10-25T06:37:56.866Z,34.50
2017-10-25T06:39:57.912Z,29.57
2017-10-25T06:41:59.030Z,31.07
2017-10-25T06:44:00.140Z,27.90
2017-10-25T06:46:01.237Z,29.40
2017-10-25T06:48:16.913Z,37.43
2017-10-25T07:12:55.287Z,37.00
2017-10-25T07:14:56.695Z,34.27
2017-10-25T07:16:59.097Z,29.77
2017-10-25T07:19:15.406Z,34.87
2017-10-25T07:21:16.605Z,35.90
2017-10-25T07:23:22.886Z,32.53
2017-10-25T07:25:24.987Z,26.77
2017-10-25T07:27:31.810Z,30.60
2017-10-25T07:29:33.020Z,25.93
2017-10-25T07:31:38.712Z,23.10
2017-10-25T07:33:39.916Z,22.50
2017-10-25T07:38:14.207Z,19.47
2017-10-25T07:40:15.245Z,21.67
2017-10-25T07:42:16.286Z,28.47
2017-10-25T07:44:22.143Z,20.33
2017-10-25T07:46:24.365Z,18.13
2017-10-25T07:48:27.544Z,19.20
2017-10-25T07:50:28.794Z,21.37
2017-10-25T07:52:29.802Z,27.23
2017-10-25T07:54:46.509Z,17.70
2017-10-25T07:56:49.161Z,19.83
2017-10-25T07:58:50.316Z,17.67
2017-10-25T08:00:51.366Z,24.13
2017-10-25T08:02:52.389Z,19.40
2017-10-25T08:04:53.459Z,21.57
2017-10-25T08:06:54.561Z,27.43
2017-10-25T08:14:10.856Z,16.07
2017-10-25T08:16:11.907Z,15.87
2017-10-25T08:23:12.903Z,16.83
2017-10-25T08:25:13.941Z,15.03
2017-10-25T08:29:53.829Z,15.97
2017-10-25T08:31:54.919Z,13.83
2017-10-25T08:41:49.716Z,13.50
2017-10-25T08:46:29.623Z,11.37
2017-10-25T08:48:30.645Z,10.40
2017-10-25T08:50:31.745Z,10.30
2017-10-25T08:52:38.891Z,11.00
2017-10-25T08:54:40.056Z,16.27
2017-10-25T08:56:41.153Z,10.07
2017-10-25T08:58:42.279Z,17.50
2017-10-25T09:00:43.268Z,13.37
2017-10-25T09:02:51.079Z,14.07
2017-10-25T09:10:08.718Z,10.20
2017-10-25T09:17:25.464Z,8.70
2017-10-25T09:24:20.197Z,9.93
2017-10-25T09:26:29.714Z,17.53
2017-10-25T09:31:01.352Z,12.73
2017-10-25T09:47:51.180Z,10.37
2017-10-25T09:49:55.613Z,17.00
2017-10-25T09:51:57.234Z,13.57
2017-10-25T10:05:46.520Z,12.70
2017-10-25T10:07:47.473Z,11.07
2017-10-25T10:09:48.420Z,16.90
2017-10-25T10:11:49.681Z,11.97
2017-10-25T10:13:50.639Z,16.70
2017-10-25T10:15:51.625Z,18.10
2017-10-25T10:20:31.801Z,16.97
2017-10-25T10:22:37.172Z,9.70
2017-10-25T10:24:52.090Z,9.93
2017-10-25T10:29:20.824Z,10.47
2017-10-25T10:31:23.590Z,10.90
2017-10-25T10:33:26.067Z,13.50
2017-10-25T10:35:48.610Z,20.03
2017-10-25T10:40:26.940Z,15.10
2017-10-25T10:45:17.201Z,14.50
2017-10-25T10:58:35.753Z,13.80
2017-10-25T11:00:40.190Z,19.50
2017-10-25T11:02:42.556Z,14.63
2017-10-25T11:04:46.764Z,15.80
2017-10-25T11:06:49.529Z,9.47
2017-10-25T11:11:19.340Z,11.60
2017-10-25T11:13:20.636Z,11.43
2017-10-25T11:15:35.645Z,12.03
2017-10-25T11:17:36.962Z,9.77
2017-10-25T11:19:38.119Z,16.77
2017-10-25T11:21:39.227Z,13.97
2017-10-25T11:23:40.401Z,15.30
2017-10-25T11:25:42.267Z,10.90
2017-10-25T11:27:44.025Z,12.25
2017-10-25T11:29:45.269Z,14.83
2017-10-25T11:32:18.449Z,13.50
2017-10-25T11:34:22.591Z,18.20
2017-10-25T11:36:26.610Z,23.47
2017-10-25T11:38:27.775Z,13.43
2017-10-25T11:40:52.352Z,9.57
2017-10-25T11:45:20.615Z,13.37
2017-10-25T11:49:48.597Z,11.50
2017-10-25T11:51:50.236Z,12.87
2017-10-25T11:53:51.373Z,16.83
2017-10-25T11:55:53.224Z,15.00
2017-10-25T11:57:54.816Z,13.73
2017-10-25T11:59:56.241Z,14.70
2017-10-25T12:01:57.521Z,13.60
2017-10-25T12:04:18.040Z,16.33
2017-10-25T12:06:19.153Z,11.40
2017-10-25T12:08:21.827Z,13.23
2017-10-25T12:10:23.037Z,20.07
2017-10-25T12:12:24.158Z,16.27
2017-10-25T12:16:35.846Z,18.83
2017-10-25T12:18:37.048Z,17.53
2017-10-25T12:20:38.160Z,13.30
2017-10-25T12:22:41.541Z,12.40
2017-10-25T12:24:47.673Z,12.93
2017-10-25T12:29:26.535Z,17.70
2017-10-25T12:31:32.644Z,15.07
2017-10-25T12:33:33.867Z,14.47
2017-10-25T12:35:37.967Z,17.03
2017-10-25T12:39:59.626Z,13.27
2017-10-25T12:42:11.050Z,9.87
2017-10-25T12:44:30.330Z,12.37
2017-10-25T12:46:31.906Z,10.33
2017-10-25T12:48:43.160Z,17.70
2017-10-25T12:50:44.279Z,17.63
2017-10-25T12:52:45.440Z,20.17
2017-10-25T12:54:46.613Z,15.80
2017-10-25T12:56:47.941Z,17.10
2017-10-25T12:58:49.176Z,18.43
2017-10-25T13:00:52.007Z,15.97
2017-10-25T13:02:55.958Z,13.17
2017-10-25T13:04:57.518Z,22.83
2017-10-25T13:07:01.933Z,19.30
2017-10-25T13:09:03.161Z,23.90
2017-10-25T13:11:05.216Z,17.87
2017-10-25T13:13:08.611Z,24.43
2017-10-25T13:15:10.845Z,20.27
2017-10-25T13:17:14.353Z,17.00
2017-10-25T13:19:15.562Z,25.77
2017-10-25T13:21:23.478Z,21.87
2017-10-25T13:23:38.191Z,25.35
2017-10-25T13:25:47.766Z,30.97
2017-10-25T13:27:49.035Z,22.80
2017-10-25T13:29:50.117Z,22.43
2017-10-25T13:31:51.233Z,25.40
2017-10-25T13:33:52.447Z,18.70
2017-10-25T13:35:54.445Z,25.07
2017-10-25T13:38:13.005Z,29.80
2017-10-25T13:42:46.417Z,21.23
2017-10-25T13:44:47.658Z,21.20
2017-10-25T13:46:54.075Z,23.93
2017-10-25T13:48:55.231Z,26.73
2017-10-25T13:50:56.675Z,29.27
2017-10-25T13:55:32.698Z,32.63
2017-10-25T13:57:33.919Z,26.07
2017-10-25T13:59:55.517Z,27.20
2017-10-25T14:01:56.657Z,27.90
2017-10-25T14:03:58.571Z,23.67
2017-10-25T14:06:01.885Z,24.80
2017-10-25T14:08:02.987Z,24.30
2017-10-25T14:10:04.009Z,31.63
2017-10-25T14:12:06.261Z,26.77
2017-10-25T14:14:08.378Z,28.13
2017-10-25T14:16:35.090Z,27.37
2017-10-25T14:18:36.819Z,27.27
2017-10-25T14:20:37.899Z,25.43
2017-10-25T14:22:39.617Z,31.30
2017-10-25T14:24:40.642Z,25.47
2017-10-25T14:29:05.148Z,26.67
2017-10-25T14:31:06.543Z,22.10
2017-10-25T14:33:10.101Z,29.70
2017-10-25T14:43:10.528Z,36.60
2017-10-25T14:50:11.770Z,26.00
2017-10-25T14:52:33.267Z,22.40
2017-10-25T14:54:38.003Z,23.63
2017-10-25T15:04:31.637Z,19.43
2017-10-25T15:06:36.221Z,23.07
2017-10-25T15:23:50.633Z,13.73
2017-10-25T15:30:54.943Z,16.83
2017-10-25T15:35:27.731Z,14.47
2017-10-25T15:45:15.199Z,19.40
2017-10-25T15:59:26.463Z,24.57
2017-10-25T16:01:27.893Z,22.10
2017-10-25T16:11:03.540Z,26.63
2017-10-25T18:06:56.639Z,35.37
2017-10-25T18:09:00.875Z,34.03
2017-10-25T18:11:02.856Z,35.13
2017-10-25T18:13:03.916Z,40.33
2017-10-25T18:17:18.388Z,33.10
2017-10-25T18:19:19.413Z,46.00
2017-10-25T18:21:20.515Z,40.80
2017-10-25T18:23:22.077Z,42.30
2017-10-25T18:25:23.482Z,33.80
2017-10-25T18:27:24.614Z,40.87
2017-10-25T18:29:25.795Z,47.33
2017-10-25T18:31:26.848Z,38.93
2017-10-25T18:33:27.916Z,42.97
2017-10-25T18:35:40.245Z,38.20
2017-10-25T18:40:09.825Z,34.00
2017-10-25T18:42:12.025Z,46.57
2017-10-25T18:46:49.669Z,39.53
2017-10-25T18:48:51.612Z,39.67
2017-10-25T18:50:52.737Z,37.83
2017-10-25T18:55:42.050Z,51.90
2017-10-25T18:57:44.760Z,43.93
2017-10-25T19:00:03.383Z,51.10
2017-10-25T19:07:21.656Z,37.87
2017-10-25T19:14:28.430Z,56.77
2017-10-25T19:16:31.341Z,46.03
2017-10-25T19:18:32.531Z,48.80
2017-10-25T19:20:33.684Z,50.30
2017-10-25T19:22:34.710Z,48.73
2017-10-25T19:24:35.802Z,50.53
2017-10-25T19:31:52.767Z,48.97
2017-10-25T19:41:21.337Z,52.55
2017-10-25T19:45:50.090Z,46.57
2017-10-25T19:47:51.094Z,52.50
2017-10-25T19:50:07.118Z,51.70
2017-10-25T20:15:21.375Z,55.93
2017-10-25T20:19:52.021Z,50.93
2017-10-25T20:21:53.190Z,55.07
2017-10-25T20:24:00.064Z,68.47
2017-10-25T20:26:06.088Z,53.70
2017-10-25T20:30:31.020Z,56.27
2017-10-25T20:32:34.381Z,59.37
2017-10-25T20:34:36.789Z,46.33
2017-10-25T20:36:37.877Z,58.67
2017-10-25T20:38:39.572Z,54.37
2017-10-25T20:40:42.905Z,47.03
2017-10-25T20:43:04.675Z,56.17
2017-10-25T20:47:33.394Z,65.53
2017-10-25T20:57:07.581Z,51.97
2017-10-25T21:08:54.506Z,70.83
2017-10-25T21:16:26.068Z,56.77
2017-10-25T21:18:27.067Z,61.73
2017-10-25T21:20:29.980Z,53.33
2017-10-25T21:27:28.285Z,48.30
2017-10-25T21:29:44.517Z,46.80
2017-10-25T21:34:13.096Z,46.37
2017-10-25T21:41:14.800Z,46.50
2017-10-25T21:48:24.045Z,41.10
2017-10-25T21:50:25.169Z,42.07
2017-10-25T21:52:33.849Z,57.53
2017-10-25T21:55:04.268Z,47.33
2017-10-25T22:02:09.941Z,51.13
2017-10-25T22:09:15.375Z,51.57
2017-10-25T22:11:16.431Z,58.50
2017-10-25T22:16:03.508Z,53.40
2017-10-25T22:20:42.041Z,56.23
2017-10-25T22:22:43.036Z,55.07
2017-10-25T22:24:44.071Z,65.73
2017-10-25T22:26:46.154Z,55.30
2017-10-25T22:31:39.528Z,59.37
2017-10-25T22:33:40.725Z,65.13
2017-10-25T22:35:41.784Z,74.53
2017-10-25T22:43:03.616Z,56.47
2017-10-25T22:45:04.758Z,56.47
2017-10-25T22:47:07.908Z,62.13
2017-10-25T22:59:31.811Z,53.97
2017-10-25T23:06:51.625Z,47.83
2017-10-25T23:08:52.863Z,52.17
2017-10-25T23:10:54.049Z,50.97
2017-10-25T23:15:23.043Z,55.93
2017-10-25T23:17:24.607Z,48.10
2017-10-25T23:29:55.480Z,65.87
2017-10-25T23:31:57.621Z,41.37
2017-10-25T23:34:05.844Z,52.97
2017-10-25T23:38:39.925Z,58.10
2017-10-25T23:41:04.963Z,49.77
2017-10-25T23:45:38.574Z,54.10
2017-10-25T23:52:56.209Z,63.17
2017-10-25T23:57:37.812Z,67.80
2017-10-25T23:59:40.840Z,78.37
